Sardinia Vera — IBWV — position and weather

sailwx.info

Track history (hours):
 
Tides and Currents Weather Stations Pressure Air Temp Water Temp Dewpoint Dewpoint Depression Visibility Wind Speed Wind Dir Waves Ship Positions

Sardinia Vera

Last reported at 2016-Aug-28 23:33 UTC. Time now 2016-Aug-29 00:10 UTC.
Position N 43°44' E 008°56'.

Length 121 m; draft 5.6 m.

Type: Passenger vessel. MMSI: 247392000.

Date/timePositionNaut miles runAvg speedWind from/ knotsBaromVisibWave heightAir tempDewpointWater temp
2016-Aug-28 23:33N 43°44' E 008°56'1514.5
2016-Aug-28 22:32N 43°57' E 008°45'1814.9
2016-Aug-28 21:20N 44°12' E 008°32'6 7.2
2016-Aug-28 20:33N 44°16' E 008°27'0 0.0
2016-Aug-28 19:33N 44°16' E 008°27'0 0.0
2016-Aug-28 18:33N 44°16' E 008°27'9 8.7
2016-Aug-28 17:33N 44°10' E 008°36'1717.0
2016-Aug-28 16:33N 43°55' E 008°48'1717.1
2016-Aug-28 15:32N 43°40' E 009°00'1917.2
2016-Aug-28 14:27N 43°24' E 009°13'3217.1
2016-Aug-28 12:33N 42°55' E 009°32'3 1.1
2016-Aug-28 09:32N 42°52' E 009°34'1716.8
2016-Aug-28 08:31N 43°08' E 009°42'1617.2
2016-Aug-28 07:33N 43°19' E 009°58'1716.8
2016-Aug-28 06:33N 43°31' E 010°14'3 3.5
2016-Aug-28 05:33N 43°33' E 010°18'0 0.0
2016-Aug-28 04:33N 43°33' E 010°18'1 1.0
2016-Aug-28 03:33N 43°32' E 010°17'1313.1
2016-Aug-28 02:33N 43°21' E 010°09'2813.3
2016-Aug-28 00:25N 43°08' E 009°34'1315.1
2016-Aug-27 23:33N 43°03' E 009°18'1110.4
2016-Aug-27 22:30N 42°55' E 009°09'1311.4
2016-Aug-27 21:20N 42°43' E 009°00'5 6.3
2016-Aug-27 20:28N 42°38' E 008°56'0 0.0
2016-Aug-27 19:32N 42°38' E 008°56'4815.2
2016-Aug-27 16:24N 43°09' E 008°07'4816.9
2016-Aug-27 13:34N 43°41' E 007°17'0 0.4
2016-Aug-27 12:28N 43°42' E 007°17'8 8.2
2016-Aug-27 11:29N 43°36' E 007°25'66 6.6
2016-Aug-27 01:32N 43°12' E 008°49'1515.3
2016-Aug-27 00:34N 43°27' E 008°46'1515.4
2016-Aug-26 23:34N 43°42' E 008°41'1615.5
2016-Aug-26 22:33N 43°57' E 008°35'1515.0
2016-Aug-26 21:33N 44°12' E 008°34'7 6.5
2016-Aug-26 20:33N 44°16' E 008°27'0 0.0
2016-Aug-26 19:33N 44°16' E 008°27'0 0.0
2016-Aug-26 18:33N 44°16' E 008°27'6 6.4
2016-Aug-26 17:33N 44°12' E 008°34'1716.6
2016-Aug-26 16:33N 43°58' E 008°46'1716.8
2016-Aug-26 15:33N 43°43' E 008°57'1717.2
2016-Aug-26 14:33N 43°28' E 009°09'1717.2
2016-Aug-26 13:33N 43°13' E 009°21'17 3.4
2016-Aug-26 08:33N 43°07' E 009°42'1717.5
2016-Aug-26 07:34N 43°20' E 009°59'1716.6
2016-Aug-26 06:33N 43°32' E 010°15'3 1.5
2016-Aug-26 04:33N 43°33' E 010°18'1 1.3
2016-Aug-26 03:33N 43°32' E 010°17'1211.9
2016-Aug-26 02:34N 43°23' E 010°06'1413.5
2016-Aug-26 01:33N 43°11' E 009°58'2914.8
2016-Aug-25 23:33N 43°03' E 009°19'1614.7
2016-Aug-25 22:29N 42°51' E 009°06'9310.2
2016-Aug-25 13:24N 43°40' E 007°18'2 2.0
2016-Aug-25 12:34N 43°42' E 007°17'4 4.2
2016-Aug-25 11:33N 43°38' E 007°20'70 7.0
2016-Aug-25 01:34N 43°11' E 008°49'1413.0
2016-Aug-25 00:31N 43°24' E 008°44'1413.9
2016-Aug-24 23:29N 43°38' E 008°47'1516.2
2016-Aug-24 22:33N 43°52' E 008°41'1716.9
2016-Aug-24 21:34N 44°09' E 008°36'10 9.0
2016-Aug-24 20:30N 44°16' E 008°27'0 0.0
2016-Aug-24 19:30N 44°16' E 008°27'0 0.0
2016-Aug-24 18:24N 44°16' E 008°27'0 0.0
2016-Aug-24 17:30N 44°16' E 008°27'0 0.0
2016-Aug-24 16:30N 44°16' E 008°27'6 6.0
2016-Aug-24 15:33N 44°13' E 008°34'1716.7
2016-Aug-24 14:32N 43°58' E 008°45'1717.0
2016-Aug-24 13:33N 43°44' E 008°57'1717.2
2016-Aug-24 12:33N 43°29' E 009°09'1717.2
2016-Aug-24 11:33N 43°14' E 009°20'11 1.3
2016-Aug-24 03:19N 43°04' E 009°26'1215.3
2016-Aug-24 02:34N 43°13' E 009°16'8 7.8
2016-Aug-24 01:33N 43°21' E 009°15'1212.1
2016-Aug-24 00:33N 43°30' E 009°05'1313.3
2016-Aug-23 23:33N 43°42' E 008°56'1515.3
2016-Aug-23 22:33N 43°55' E 008°47'1915.7
2016-Aug-23 21:23N 44°11' E 008°33'6 7.7
2016-Aug-23 20:33N 44°16' E 008°27'0 0.0
2016-Aug-23 19:33N 44°16' E 008°27'0 0.0
2016-Aug-23 18:33N 44°16' E 008°27'0 0.0
2016-Aug-23 17:33N 44°16' E 008°27'0 0.0
2016-Aug-23 16:33N 44°16' E 008°27'9 8.7
2016-Aug-23 15:34N 44°10' E 008°36'1716.9
2016-Aug-23 14:33N 43°56' E 008°48'1916.7
2016-Aug-23 13:24N 43°39' E 009°01'24 2.2
2016-Aug-23 02:23N 43°17' E 009°17'1916.1
2016-Aug-23 01:14N 43°33' E 009°04'1116.6
2016-Aug-23 00:33N 43°43' E 008°56'1717.1
2016-Aug-22 23:33N 43°57' E 008°43'1717.2
2016-Aug-22 22:33N 44°12' E 008°32'5 4.8
2016-Aug-22 21:33N 44°16' E 008°27'8 7.6
2016-Aug-22 20:33N 44°11' E 008°35'1716.8
2016-Aug-22 19:33N 43°57' E 008°47'1717.2
2016-Aug-22 18:33N 43°42' E 008°59'1717.3
2016-Aug-22 17:33N 43°27' E 009°11'1717.2
2016-Aug-22 16:34N 43°12' E 009°22'1717.0
2016-Aug-22 15:33N 42°56' E 009°32'26 5.1
2016-Aug-22 10:31N 43°19' E 009°16'1616.5
2016-Aug-22 09:33N 43°33' E 009°04'1616.7
2016-Aug-22 08:33N 43°47' E 008°52'1716.8
2016-Aug-22 07:33N 44°02' E 008°40'1716.8
2016-Aug-22 06:34N 44°16' E 008°28'1 1.0
2016-Aug-22 05:33N 44°16' E 008°27'4 3.6
2016-Aug-22 04:34N 44°14' E 008°31'1616.0
2016-Aug-22 03:33N 44°00' E 008°42'1716.8
2016-Aug-22 02:34N 43°46' E 008°54'1716.8
2016-Aug-22 01:33N 43°31' E 009°06'1717.0
2016-Aug-22 00:33N 43°16' E 009°18'1817.2
2016-Aug-21 23:31N 43°01' E 009°30'27 5.4
2016-Aug-21 18:28N 43°25' E 009°12'1616.4
2016-Aug-21 17:32N 43°38' E 009°01'1616.8
2016-Aug-21 16:33N 43°52' E 008°48'2116.8
2016-Aug-21 15:18N 44°10' E 008°34'810.2
2016-Aug-21 14:33N 44°16' E 008°27'3 2.8
2016-Aug-21 13:33N 44°15' E 008°31'1817.2
2016-Aug-21 12:31N 43°60' E 008°44'1617.3
2016-Aug-21 11:34N 43°46' E 008°55'3517.2
2016-Aug-21 09:33N 43°16' E 009°19'19 3.1
2016-Aug-21 03:25N 43°13' E 008°54'6716.8
2016-Aug-20 23:24N 43°36' E 007°27'910.6
2016-Aug-20 22:33N 43°42' E 007°17'1 0.9
2016-Aug-20 21:33N 43°41' E 007°17'7 0.5
2016-Aug-20 09:14N 43°36' E 007°24'7 9.9
2016-Aug-20 08:30N 43°42' E 007°17'0 0.0
2016-Aug-20 07:33N 43°42' E 007°17'8 7.6
2016-Aug-20 06:33N 43°37' E 007°26'1817.5
2016-Aug-20 05:31N 43°31' E 007°49'1717.3
2016-Aug-20 04:33N 43°24' E 008°10'1717.3
2016-Aug-20 03:33N 43°19' E 008°33'1717.1
2016-Aug-20 02:33N 43°12' E 008°55'1717.0
2016-Aug-20 01:33N 43°07' E 009°17'1615.5
2016-Aug-20 00:30N 42°55' E 009°32'7 2.1
2016-Aug-19 21:14N 43°00' E 009°37'1117.0
2016-Aug-19 20:34N 43°10' E 009°46'1717.5
2016-Aug-19 19:34N 43°23' E 010°02'1514.9
2016-Aug-19 18:34N 43°33' E 010°17'1 0.6
2016-Aug-19 17:33N 43°33' E 010°18'3 2.8
2016-Aug-19 16:33N 43°31' E 010°15'1615.7
2016-Aug-19 15:32N 43°20' E 010°00'1 0.2
2016-Aug-19 07:33N 43°20' E 009°58'1716.6
2016-Aug-19 06:33N 43°32' E 010°15'3 2.8
2016-Aug-19 05:31N 43°33' E 010°18'0 0.0
2016-Aug-19 04:33N 43°33' E 010°18'1 1.3
2016-Aug-19 03:33N 43°32' E 010°17'1312.8
2016-Aug-19 02:33N 43°23' E 010°04'1311.4
2016-Aug-19 01:23N 43°14' E 009°51'  
Track history (hours):
 
Tides and Currents Weather Stations Pressure Air Temp Water Temp Dewpoint Dewpoint Depression Visibility Wind Speed Wind Dir Waves Ship Positions

Sardinia Vera

Last reported at 2016-Aug-28 23:33 UTC. Time now 2016-Aug-29 00:10 UTC.
Position N 43°44' E 008°56'.

Length 121 m; draft 5.6 m.

Type: Passenger vessel. MMSI: 247392000.

Date/timePositionNaut miles runAvg speedWind from/ knotsBaromVisibWave heightAir tempDewpointWater temp
2016-Aug-28 23:33N 43°44' E 008°56'1514.5
2016-Aug-28 22:32N 43°57' E 008°45'1814.9
2016-Aug-28 21:20N 44°12' E 008°32'6 7.2
2016-Aug-28 20:33N 44°16' E 008°27'0 0.0
2016-Aug-28 19:33N 44°16' E 008°27'0 0.0
2016-Aug-28 18:33N 44°16' E 008°27'9 8.7
2016-Aug-28 17:33N 44°10' E 008°36'1717.0
2016-Aug-28 16:33N 43°55' E 008°48'1717.1
2016-Aug-28 15:32N 43°40' E 009°00'1917.2
2016-Aug-28 14:27N 43°24' E 009°13'3217.1
2016-Aug-28 12:33N 42°55' E 009°32'3 1.1
2016-Aug-28 09:32N 42°52' E 009°34'1716.8
2016-Aug-28 08:31N 43°08' E 009°42'1617.2
2016-Aug-28 07:33N 43°19' E 009°58'1716.8
2016-Aug-28 06:33N 43°31' E 010°14'3 3.5
2016-Aug-28 05:33N 43°33' E 010°18'0 0.0
2016-Aug-28 04:33N 43°33' E 010°18'1 1.0
2016-Aug-28 03:33N 43°32' E 010°17'1313.1
2016-Aug-28 02:33N 43°21' E 010°09'2813.3
2016-Aug-28 00:25N 43°08' E 009°34'1315.1
2016-Aug-27 23:33N 43°03' E 009°18'1110.4
2016-Aug-27 22:30N 42°55' E 009°09'1311.4
2016-Aug-27 21:20N 42°43' E 009°00'5 6.3
2016-Aug-27 20:28N 42°38' E 008°56'0 0.0
2016-Aug-27 19:32N 42°38' E 008°56'4815.2
2016-Aug-27 16:24N 43°09' E 008°07'4816.9
2016-Aug-27 13:34N 43°41' E 007°17'0 0.4
2016-Aug-27 12:28N 43°42' E 007°17'8 8.2
2016-Aug-27 11:29N 43°36' E 007°25'66 6.6
2016-Aug-27 01:32N 43°12' E 008°49'1515.3
2016-Aug-27 00:34N 43°27' E 008°46'1515.4
2016-Aug-26 23:34N 43°42' E 008°41'1615.5
2016-Aug-26 22:33N 43°57' E 008°35'1515.0
2016-Aug-26 21:33N 44°12' E 008°34'7 6.5
2016-Aug-26 20:33N 44°16' E 008°27'0 0.0
2016-Aug-26 19:33N 44°16' E 008°27'0 0.0
2016-Aug-26 18:33N 44°16' E 008°27'6 6.4
2016-Aug-26 17:33N 44°12' E 008°34'1716.6
2016-Aug-26 16:33N 43°58' E 008°46'1716.8
2016-Aug-26 15:33N 43°43' E 008°57'1717.2
2016-Aug-26 14:33N 43°28' E 009°09'1717.2
2016-Aug-26 13:33N 43°13' E 009°21'17 3.4
2016-Aug-26 08:33N 43°07' E 009°42'1717.5
2016-Aug-26 07:34N 43°20' E 009°59'1716.6
2016-Aug-26 06:33N 43°32' E 010°15'3 1.5
2016-Aug-26 04:33N 43°33' E 010°18'1 1.3
2016-Aug-26 03:33N 43°32' E 010°17'1211.9
2016-Aug-26 02:34N 43°23' E 010°06'1413.5
2016-Aug-26 01:33N 43°11' E 009°58'2914.8
2016-Aug-25 23:33N 43°03' E 009°19'1614.7
2016-Aug-25 22:29N 42°51' E 009°06'9310.2
2016-Aug-25 13:24N 43°40' E 007°18'2 2.0
2016-Aug-25 12:34N 43°42' E 007°17'4 4.2
2016-Aug-25 11:33N 43°38' E 007°20'70 7.0
2016-Aug-25 01:34N 43°11' E 008°49'1413.0
2016-Aug-25 00:31N 43°24' E 008°44'1413.9
2016-Aug-24 23:29N 43°38' E 008°47'1516.2
2016-Aug-24 22:33N 43°52' E 008°41'1716.9
2016-Aug-24 21:34N 44°09' E 008°36'10 9.0
2016-Aug-24 20:30N 44°16' E 008°27'0 0.0
2016-Aug-24 19:30N 44°16' E 008°27'0 0.0
2016-Aug-24 18:24N 44°16' E 008°27'0 0.0
2016-Aug-24 17:30N 44°16' E 008°27'0 0.0
2016-Aug-24 16:30N 44°16' E 008°27'6 6.0
2016-Aug-24 15:33N 44°13' E 008°34'1716.7
2016-Aug-24 14:32N 43°58' E 008°45'1717.0
2016-Aug-24 13:33N 43°44' E 008°57'1717.2
2016-Aug-24 12:33N 43°29' E 009°09'1717.2
2016-Aug-24 11:33N 43°14' E 009°20'11 1.3
2016-Aug-24 03:19N 43°04' E 009°26'1215.3
2016-Aug-24 02:34N 43°13' E 009°16'8 7.8
2016-Aug-24 01:33N 43°21' E 009°15'1212.1
2016-Aug-24 00:33N 43°30' E 009°05'1313.3
2016-Aug-23 23:33N 43°42' E 008°56'1515.3
2016-Aug-23 22:33N 43°55' E 008°47'1915.7
2016-Aug-23 21:23N 44°11' E 008°33'6 7.7
2016-Aug-23 20:33N 44°16' E 008°27'0 0.0
2016-Aug-23 19:33N 44°16' E 008°27'0 0.0
2016-Aug-23 18:33N 44°16' E 008°27'0 0.0
2016-Aug-23 17:33N 44°16' E 008°27'0 0.0
2016-Aug-23 16:33N 44°16' E 008°27'9 8.7
2016-Aug-23 15:34N 44°10' E 008°36'1716.9
2016-Aug-23 14:33N 43°56' E 008°48'1916.7
2016-Aug-23 13:24N 43°39' E 009°01'24 2.2
2016-Aug-23 02:23N 43°17' E 009°17'1916.1
2016-Aug-23 01:14N 43°33' E 009°04'1116.6
2016-Aug-23 00:33N 43°43' E 008°56'1717.1
2016-Aug-22 23:33N 43°57' E 008°43'1717.2
2016-Aug-22 22:33N 44°12' E 008°32'5 4.8
2016-Aug-22 21:33N 44°16' E 008°27'8 7.6
2016-Aug-22 20:33N 44°11' E 008°35'1716.8
2016-Aug-22 19:33N 43°57' E 008°47'1717.2
2016-Aug-22 18:33N 43°42' E 008°59'1717.3
2016-Aug-22 17:33N 43°27' E 009°11'1717.2
2016-Aug-22 16:34N 43°12' E 009°22'1717.0
2016-Aug-22 15:33N 42°56' E 009°32'26 5.1
2016-Aug-22 10:31N 43°19' E 009°16'1616.5
2016-Aug-22 09:33N 43°33' E 009°04'1616.7
2016-Aug-22 08:33N 43°47' E 008°52'1716.8
2016-Aug-22 07:33N 44°02' E 008°40'1716.8
2016-Aug-22 06:34N 44°16' E 008°28'1 1.0
2016-Aug-22 05:33N 44°16' E 008°27'4 3.6
2016-Aug-22 04:34N 44°14' E 008°31'1616.0
2016-Aug-22 03:33N 44°00' E 008°42'1716.8
2016-Aug-22 02:34N 43°46' E 008°54'1716.8
2016-Aug-22 01:33N 43°31' E 009°06'1717.0
2016-Aug-22 00:33N 43°16' E 009°18'1817.2
2016-Aug-21 23:31N 43°01' E 009°30'27 5.4
2016-Aug-21 18:28N 43°25' E 009°12'1616.4
2016-Aug-21 17:32N 43°38' E 009°01'1616.8
2016-Aug-21 16:33N 43°52' E 008°48'2116.8
2016-Aug-21 15:18N 44°10' E 008°34'810.2
2016-Aug-21 14:33N 44°16' E 008°27'3 2.8
2016-Aug-21 13:33N 44°15' E 008°31'1817.2
2016-Aug-21 12:31N 43°60' E 008°44'1617.3
2016-Aug-21 11:34N 43°46' E 008°55'3517.2
2016-Aug-21 09:33N 43°16' E 009°19'19 3.1
2016-Aug-21 03:25N 43°13' E 008°54'6716.8
2016-Aug-20 23:24N 43°36' E 007°27'910.6
2016-Aug-20 22:33N 43°42' E 007°17'1 0.9
2016-Aug-20 21:33N 43°41' E 007°17'7 0.5
2016-Aug-20 09:14N 43°36' E 007°24'7 9.9
2016-Aug-20 08:30N 43°42' E 007°17'0 0.0
2016-Aug-20 07:33N 43°42' E 007°17'8 7.6
2016-Aug-20 06:33N 43°37' E 007°26'1817.5
2016-Aug-20 05:31N 43°31' E 007°49'1717.3
2016-Aug-20 04:33N 43°24' E 008°10'1717.3
2016-Aug-20 03:33N 43°19' E 008°33'1717.1
2016-Aug-20 02:33N 43°12' E 008°55'1717.0
2016-Aug-20 01:33N 43°07' E 009°17'1615.5
2016-Aug-20 00:30N 42°55' E 009°32'7 2.1
2016-Aug-19 21:14N 43°00' E 009°37'1117.0
2016-Aug-19 20:34N 43°10' E 009°46'1717.5
2016-Aug-19 19:34N 43°23' E 010°02'1514.9
2016-Aug-19 18:34N 43°33' E 010°17'1 0.6
2016-Aug-19 17:33N 43°33' E 010°18'3 2.8
2016-Aug-19 16:33N 43°31' E 010°15'1615.7
2016-Aug-19 15:32N 43°20' E 010°00'1 0.2
2016-Aug-19 07:33N 43°20' E 009°58'1716.6
2016-Aug-19 06:33N 43°32' E 010°15'3 2.8
2016-Aug-19 05:31N 43°33' E 010°18'0 0.0
2016-Aug-19 04:33N 43°33' E 010°18'1 1.3
2016-Aug-19 03:33N 43°32' E 010°17'1312.8
2016-Aug-19 02:33N 43°23' E 010°04'1311.4
2016-Aug-19 01:23N 43°14' E 009°51'  

Dump ship's entire track history